sensor_id;sensor_type;location;lat;lon;timestamp;P1;durP1;ratioP1;P2;durP2;ratioP2
11490;SDS011;5802;52.832;4.758;2023-09-18T00:01:16;4.60;;;3.80;;
11490;SDS011;5802;52.832;4.758;2023-09-18T00:03:46;4.35;;;3.75;;
11490;SDS011;5802;52.832;4.758;2023-09-18T00:06:12;5.03;;;4.10;;
11490;SDS011;5802;52.832;4.758;2023-09-18T00:08:39;3.95;;;3.55;;
11490;SDS011;5802;52.832;4.758;2023-09-18T00:11:06;4.35;;;3.90;;
11490;SDS011;5802;52.832;4.758;2023-09-18T00:13:33;4.93;;;3.83;;
11490;SDS011;5802;52.832;4.758;2023-09-18T00:15:59;4.28;;;3.75;;
11490;SDS011;5802;52.832;4.758;2023-09-18T00:18:26;4.15;;;3.55;;
11490;SDS011;5802;52.832;4.758;2023-09-18T00:20:56;5.05;;;4.22;;
11490;SDS011;5802;52.832;4.758;2023-09-18T00:23:22;4.13;;;3.72;;
11490;SDS011;5802;52.832;4.758;2023-09-18T00:25:49;5.53;;;4.32;;
11490;SDS011;5802;52.832;4.758;2023-09-18T00:28:16;4.57;;;3.67;;
11490;SDS011;5802;52.832;4.758;2023-09-18T00:30:46;4.10;;;3.70;;
11490;SDS011;5802;52.832;4.758;2023-09-18T00:33:14;4.65;;;4.05;;
11490;SDS011;5802;52.832;4.758;2023-09-18T00:35:40;4.10;;;3.70;;
11490;SDS011;5802;52.832;4.758;2023-09-18T00:38:13;4.57;;;3.80;;
11490;SDS011;5802;52.832;4.758;2023-09-18T00:40:39;5.05;;;3.75;;
11490;SDS011;5802;52.832;4.758;2023-09-18T00:43:06;4.30;;;3.80;;
11490;SDS011;5802;52.832;4.758;2023-09-18T00:45:33;4.78;;;3.70;;
11490;SDS011;5802;52.832;4.758;2023-09-18T00:48:02;6.10;;;3.65;;
11490;SDS011;5802;52.832;4.758;2023-09-18T00:50:29;3.88;;;3.53;;
11490;SDS011;5802;52.832;4.758;2023-09-18T00:52:57;4.20;;;3.70;;
11490;SDS011;5802;52.832;4.758;2023-09-18T00:55:26;4.10;;;3.47;;
11490;SDS011;5802;52.832;4.758;2023-09-18T00:57:54;3.80;;;3.50;;
11490;SDS011;5802;52.832;4.758;2023-09-18T01:00:21;4.65;;;3.70;;
11490;SDS011;5802;52.832;4.758;2023-09-18T01:02:48;4.30;;;3.30;;
11490;SDS011;5802;52.832;4.758;2023-09-18T01:05:15;5.90;;;3.67;;
11490;SDS011;5802;52.832;4.758;2023-09-18T01:07:42;4.33;;;3.43;;
11490;SDS011;5802;52.832;4.758;2023-09-18T01:10:10;4.72;;;3.53;;
11490;SDS011;5802;52.832;4.758;2023-09-18T01:12:43;4.15;;;3.45;;
11490;SDS011;5802;52.832;4.758;2023-09-18T01:15:15;3.55;;;3.22;;
11490;SDS011;5802;52.832;4.758;2023-09-18T01:17:48;4.00;;;3.67;;
11490;SDS011;5802;52.832;4.758;2023-09-18T01:20:14;4.53;;;3.85;;
11490;SDS011;5802;52.832;4.758;2023-09-18T01:22:42;5.65;;;3.67;;
11490;SDS011;5802;52.832;4.758;2023-09-18T01:25:09;4.55;;;3.83;;
11490;SDS011;5802;52.832;4.758;2023-09-18T01:27:36;5.20;;;3.70;;
11490;SDS011;5802;52.832;4.758;2023-09-18T01:30:03;5.10;;;3.78;;
11490;SDS011;5802;52.832;4.758;2023-09-18T01:32:30;5.22;;;3.67;;
11490;SDS011;5802;52.832;4.758;2023-09-18T01:34:59;3.95;;;3.42;;
11490;SDS011;5802;52.832;4.758;2023-09-18T01:37:30;3.63;;;3.30;;
11490;SDS011;5802;52.832;4.758;2023-09-18T01:40:00;4.32;;;3.78;;
11490;SDS011;5802;52.832;4.758;2023-09-18T01:42:31;4.22;;;3.30;;
11490;SDS011;5802;52.832;4.758;2023-09-18T01:44:58;4.00;;;3.60;;
11490;SDS011;5802;52.832;4.758;2023-09-18T01:47:25;6.13;;;4.10;;
11490;SDS011;5802;52.832;4.758;2023-09-18T01:49:52;4.63;;;3.85;;
11490;SDS011;5802;52.832;4.758;2023-09-18T01:52:19;3.75;;;3.25;;
11490;SDS011;5802;52.832;4.758;2023-09-18T01:54:46;3.95;;;3.40;;
11490;SDS011;5802;52.832;4.758;2023-09-18T01:57:15;4.68;;;3.92;;
11490;SDS011;5802;52.832;4.758;2023-09-18T01:59:41;4.15;;;3.75;;
11490;SDS011;5802;52.832;4.758;2023-09-18T02:02:10;5.35;;;3.20;;
11490;SDS011;5802;52.832;4.758;2023-09-18T02:04:37;4.13;;;3.70;;
11490;SDS011;5802;52.832;4.758;2023-09-18T02:07:05;4.07;;;3.67;;
11490;SDS011;5802;52.832;4.758;2023-09-18T02:09:32;4.93;;;3.75;;
11490;SDS011;5802;52.832;4.758;2023-09-18T02:11:58;4.13;;;3.50;;
11490;SDS011;5802;52.832;4.758;2023-09-18T02:14:26;4.80;;;3.95;;
11490;SDS011;5802;52.832;4.758;2023-09-18T02:16:55;3.70;;;3.30;;
11490;SDS011;5802;52.832;4.758;2023-09-18T02:19:22;4.10;;;3.70;;
11490;SDS011;5802;52.832;4.758;2023-09-18T02:21:48;4.10;;;3.35;;
11490;SDS011;5802;52.832;4.758;2023-09-18T02:24:15;4.57;;;3.53;;
11490;SDS011;5802;52.832;4.758;2023-09-18T02:26:42;5.07;;;3.60;;
11490;SDS011;5802;52.832;4.758;2023-09-18T02:29:10;4.30;;;3.47;;
11490;SDS011;5802;52.832;4.758;2023-09-18T02:31:40;3.80;;;3.40;;
11490;SDS011;5802;52.832;4.758;2023-09-18T02:34:07;3.88;;;3.47;;
11490;SDS011;5802;52.832;4.758;2023-09-18T02:36:34;4.22;;;3.83;;
11490;SDS011;5802;52.832;4.758;2023-09-18T02:39:00;4.03;;;3.63;;
11490;SDS011;5802;52.832;4.758;2023-09-18T02:41:27;3.65;;;3.10;;
11490;SDS011;5802;52.832;4.758;2023-09-18T02:43:54;3.90;;;3.47;;
11490;SDS011;5802;52.832;4.758;2023-09-18T02:46:21;4.00;;;3.60;;
11490;SDS011;5802;52.832;4.758;2023-09-18T02:48:49;3.60;;;3.30;;
11490;SDS011;5802;52.832;4.758;2023-09-18T02:51:15;5.15;;;3.47;;
11490;SDS011;5802;52.832;4.758;2023-09-18T02:53:42;4.63;;;3.90;;
11490;SDS011;5802;52.832;4.758;2023-09-18T02:56:09;4.03;;;3.63;;
11490;SDS011;5802;52.832;4.758;2023-09-18T02:58:35;3.33;;;3.03;;
11490;SDS011;5802;52.832;4.758;2023-09-18T03:01:02;3.85;;;3.28;;
11490;SDS011;5802;52.832;4.758;2023-09-18T03:03:30;4.22;;;3.20;;
11490;SDS011;5802;52.832;4.758;2023-09-18T03:06:01;3.72;;;3.35;;
11490;SDS011;5802;52.832;4.758;2023-09-18T03:08:28;4.05;;;3.30;;
11490;SDS011;5802;52.832;4.758;2023-09-18T03:10:55;3.53;;;3.22;;
11490;SDS011;5802;52.832;4.758;2023-09-18T03:13:21;3.72;;;3.28;;
11490;SDS011;5802;52.832;4.758;2023-09-18T03:15:48;4.68;;;3.67;;
11490;SDS011;5802;52.832;4.758;2023-09-18T03:18:15;4.00;;;3.40;;
11490;SDS011;5802;52.832;4.758;2023-09-18T03:20:41;3.70;;;3.40;;
11490;SDS011;5802;52.832;4.758;2023-09-18T03:23:09;3.42;;;3.13;;
11490;SDS011;5802;52.832;4.758;2023-09-18T03:25:36;3.85;;;3.45;;
11490;SDS011;5802;52.832;4.758;2023-09-18T03:28:03;3.53;;;3.22;;
11490;SDS011;5802;52.832;4.758;2023-09-18T03:30:30;3.55;;;3.22;;
11490;SDS011;5802;52.832;4.758;2023-09-18T03:32:57;3.92;;;3.50;;
11490;SDS011;5802;52.832;4.758;2023-09-18T03:35:24;3.58;;;3.20;;
11490;SDS011;5802;52.832;4.758;2023-09-18T03:37:52;3.65;;;3.25;;
11490;SDS011;5802;52.832;4.758;2023-09-18T03:40:21;3.55;;;3.25;;
11490;SDS011;5802;52.832;4.758;2023-09-18T03:42:48;3.72;;;2.97;;
11490;SDS011;5802;52.832;4.758;2023-09-18T03:45:15;3.85;;;3.20;;
11490;SDS011;5802;52.832;4.758;2023-09-18T03:47:44;4.22;;;3.38;;
11490;SDS011;5802;52.832;4.758;2023-09-18T03:50:11;3.50;;;3.20;;
11490;SDS011;5802;52.832;4.758;2023-09-18T03:52:38;3.67;;;3.20;;
11490;SDS011;5802;52.832;4.758;2023-09-18T03:55:06;3.85;;;3.42;;
11490;SDS011;5802;52.832;4.758;2023-09-18T03:57:35;3.85;;;3.15;;
11490;SDS011;5802;52.832;4.758;2023-09-18T04:00:03;3.78;;;3.20;;
11490;SDS011;5802;52.832;4.758;2023-09-18T04:02:32;3.35;;;3.05;;
11490;SDS011;5802;52.832;4.758;2023-09-18T04:04:59;3.80;;;3.17;;
11490;SDS011;5802;52.832;4.758;2023-09-18T04:07:26;3.38;;;2.63;;
11490;SDS011;5802;52.832;4.758;2023-09-18T04:09:53;3.38;;;3.08;;
11490;SDS011;5802;52.832;4.758;2023-09-18T04:12:20;3.60;;;3.10;;
11490;SDS011;5802;52.832;4.758;2023-09-18T04:14:48;3.40;;;3.10;;
11490;SDS011;5802;52.832;4.758;2023-09-18T04:17:14;3.53;;;2.78;;
11490;SDS011;5802;52.832;4.758;2023-09-18T04:19:41;3.50;;;3.10;;
11490;SDS011;5802;52.832;4.758;2023-09-18T04:22:09;3.35;;;3.05;;
11490;SDS011;5802;52.832;4.758;2023-09-18T04:24:35;3.20;;;2.90;;
11490;SDS011;5802;52.832;4.758;2023-09-18T04:27:02;3.17;;;2.67;;
11490;SDS011;5802;52.832;4.758;2023-09-18T04:29:29;3.83;;;3.33;;
11490;SDS011;5802;52.832;4.758;2023-09-18T04:31:57;4.10;;;3.25;;
11490;SDS011;5802;52.832;4.758;2023-09-18T04:34:24;3.72;;;3.25;;
11490;SDS011;5802;52.832;4.758;2023-09-18T04:36:50;3.60;;;2.80;;
11490;SDS011;5802;52.832;4.758;2023-09-18T04:39:17;3.20;;;2.90;;
11490;SDS011;5802;52.832;4.758;2023-09-18T04:41:44;5.20;;;3.33;;
11490;SDS011;5802;52.832;4.758;2023-09-18T04:44:11;3.25;;;2.95;;
11490;SDS011;5802;52.832;4.758;2023-09-18T04:46:39;3.20;;;2.90;;
11490;SDS011;5802;52.832;4.758;2023-09-18T04:49:08;4.80;;;3.10;;
11490;SDS011;5802;52.832;4.758;2023-09-18T04:51:36;3.13;;;2.83;;
11490;SDS011;5802;52.832;4.758;2023-09-18T04:54:04;3.42;;;2.95;;
11490;SDS011;5802;52.832;4.758;2023-09-18T04:56:31;3.13;;;2.80;;
11490;SDS011;5802;52.832;4.758;2023-09-18T04:58:58;3.30;;;2.90;;
11490;SDS011;5802;52.832;4.758;2023-09-18T05:01:25;3.50;;;3.00;;
11490;SDS011;5802;52.832;4.758;2023-09-18T05:03:51;3.88;;;3.13;;
11490;SDS011;5802;52.832;4.758;2023-09-18T05:06:20;3.00;;;2.70;;
11490;SDS011;5802;52.832;4.758;2023-09-18T05:08:46;3.65;;;3.10;;
11490;SDS011;5802;52.832;4.758;2023-09-18T05:11:13;2.92;;;2.72;;
11490;SDS011;5802;52.832;4.758;2023-09-18T05:13:40;3.30;;;3.00;;
11490;SDS011;5802;52.832;4.758;2023-09-18T05:16:06;3.35;;;3.05;;
11490;SDS011;5802;52.832;4.758;2023-09-18T05:18:33;3.40;;;2.92;;
11490;SDS011;5802;52.832;4.758;2023-09-18T05:21:00;3.65;;;2.90;;
11490;SDS011;5802;52.832;4.758;2023-09-18T05:23:31;3.22;;;2.92;;
11490;SDS011;5802;52.832;4.758;2023-09-18T05:25:57;3.38;;;3.08;;
11490;SDS011;5802;52.832;4.758;2023-09-18T05:28:24;3.78;;;3.30;;
11490;SDS011;5802;52.832;4.758;2023-09-18T05:30:51;3.42;;;2.97;;
11490;SDS011;5802;52.832;4.758;2023-09-18T05:33:18;3.60;;;3.03;;
11490;SDS011;5802;52.832;4.758;2023-09-18T05:35:45;3.00;;;2.70;;
11490;SDS011;5802;52.832;4.758;2023-09-18T05:38:12;3.90;;;3.10;;
11490;SDS011;5802;52.832;4.758;2023-09-18T05:40:43;3.85;;;3.05;;
11490;SDS011;5802;52.832;4.758;2023-09-18T05:43:10;3.42;;;2.80;;
11490;SDS011;5802;52.832;4.758;2023-09-18T05:45:37;3.13;;;2.83;;
11490;SDS011;5802;52.832;4.758;2023-09-18T05:48:05;3.30;;;3.00;;
11490;SDS011;5802;52.832;4.758;2023-09-18T05:50:34;3.15;;;2.85;;
11490;SDS011;5802;52.832;4.758;2023-09-18T05:53:01;3.17;;;2.88;;
11490;SDS011;5802;52.832;4.758;2023-09-18T05:55:29;3.40;;;2.95;;
11490;SDS011;5802;52.832;4.758;2023-09-18T05:57:57;3.33;;;3.00;;
11490;SDS011;5802;52.832;4.758;2023-09-18T06:00:24;3.33;;;2.72;;
11490;SDS011;5802;52.832;4.758;2023-09-18T06:02:51;4.22;;;3.00;;
11490;SDS011;5802;52.832;4.758;2023-09-18T06:05:18;3.53;;;3.10;;
11490;SDS011;5802;52.832;4.758;2023-09-18T06:07:46;3.72;;;2.90;;
11490;SDS011;5802;52.832;4.758;2023-09-18T06:10:13;3.25;;;2.90;;
11490;SDS011;5802;52.832;4.758;2023-09-18T06:12:40;3.50;;;2.75;;
11490;SDS011;5802;52.832;4.758;2023-09-18T06:15:09;3.20;;;2.75;;
11490;SDS011;5802;52.832;4.758;2023-09-18T06:17:37;3.00;;;2.50;;
11490;SDS011;5802;52.832;4.758;2023-09-18T06:20:04;3.50;;;2.90;;
11490;SDS011;5802;52.832;4.758;2023-09-18T06:22:34;3.60;;;2.80;;
11490;SDS011;5802;52.832;4.758;2023-09-18T06:25:02;3.25;;;2.42;;
11490;SDS011;5802;52.832;4.758;2023-09-18T06:27:28;2.90;;;2.58;;
11490;SDS011;5802;52.832;4.758;2023-09-18T06:29:56;4.05;;;2.78;;
11490;SDS011;5802;52.832;4.758;2023-09-18T06:32:24;2.70;;;2.50;;
11490;SDS011;5802;52.832;4.758;2023-09-18T06:34:51;3.15;;;2.58;;
11490;SDS011;5802;52.832;4.758;2023-09-18T06:37:18;3.33;;;2.70;;
11490;SDS011;5802;52.832;4.758;2023-09-18T06:39:45;2.90;;;2.60;;
11490;SDS011;5802;52.832;4.758;2023-09-18T06:42:12;3.00;;;2.70;;
11490;SDS011;5802;52.832;4.758;2023-09-18T06:44:38;2.70;;;2.50;;
11490;SDS011;5802;52.832;4.758;2023-09-18T06:47:06;2.53;;;2.17;;
11490;SDS011;5802;52.832;4.758;2023-09-18T06:49:34;3.00;;;2.70;;
11490;SDS011;5802;52.832;4.758;2023-09-18T06:52:00;3.08;;;2.78;;
11490;SDS011;5802;52.832;4.758;2023-09-18T06:54:27;3.15;;;2.60;;
11490;SDS011;5802;52.832;4.758;2023-09-18T06:56:54;3.30;;;2.60;;
11490;SDS011;5802;52.832;4.758;2023-09-18T06:59:21;3.20;;;2.70;;
11490;SDS011;5802;52.832;4.758;2023-09-18T07:01:48;4.00;;;2.30;;
11490;SDS011;5802;52.832;4.758;2023-09-18T07:04:15;4.30;;;2.65;;
11490;SDS011;5802;52.832;4.758;2023-09-18T07:06:43;3.05;;;2.60;;
11490;SDS011;5802;52.832;4.758;2023-09-18T07:09:11;2.85;;;2.50;;
11490;SDS011;5802;52.832;4.758;2023-09-18T07:11:39;3.70;;;2.50;;
11490;SDS011;5802;52.832;4.758;2023-09-18T07:14:05;2.90;;;2.60;;
11490;SDS011;5802;52.832;4.758;2023-09-18T07:16:32;2.80;;;2.45;;
11490;SDS011;5802;52.832;4.758;2023-09-18T07:19:00;2.60;;;2.20;;
11490;SDS011;5802;52.832;4.758;2023-09-18T07:21:29;3.50;;;2.85;;
11490;SDS011;5802;52.832;4.758;2023-09-18T07:23:57;2.65;;;2.33;;
11490;SDS011;5802;52.832;4.758;2023-09-18T07:26:24;3.15;;;2.25;;
11490;SDS011;5802;52.832;4.758;2023-09-18T07:28:50;2.83;;;2.47;;
11490;SDS011;5802;52.832;4.758;2023-09-18T07:31:17;2.83;;;2.53;;
11490;SDS011;5802;52.832;4.758;2023-09-18T07:33:44;3.35;;;2.30;;
11490;SDS011;5802;52.832;4.758;2023-09-18T07:36:10;3.42;;;2.60;;
11490;SDS011;5802;52.832;4.758;2023-09-18T07:38:37;3.70;;;2.58;;
11490;SDS011;5802;52.832;4.758;2023-09-18T07:41:05;3.13;;;2.30;;
11490;SDS011;5802;52.832;4.758;2023-09-18T07:43:31;4.88;;;2.00;;
11490;SDS011;5802;52.832;4.758;2023-09-18T07:45:58;3.30;;;2.30;;
11490;SDS011;5802;52.832;4.758;2023-09-18T07:48:26;4.40;;;2.35;;
11490;SDS011;5802;52.832;4.758;2023-09-18T07:50:53;2.78;;;2.03;;
11490;SDS011;5802;52.832;4.758;2023-09-18T07:53:20;2.90;;;2.40;;
11490;SDS011;5802;52.832;4.758;2023-09-18T07:55:47;7.75;;;2.67;;
11490;SDS011;5802;52.832;4.758;2023-09-18T07:58:16;4.80;;;2.40;;
11490;SDS011;5802;52.832;4.758;2023-09-18T08:00:42;7.40;;;2.13;;
11490;SDS011;5802;52.832;4.758;2023-09-18T08:03:09;4.05;;;2.30;;
11490;SDS011;5802;52.832;4.758;2023-09-18T08:05:36;3.53;;;2.28;;
11490;SDS011;5802;52.832;4.758;2023-09-18T08:08:03;4.57;;;2.55;;
11490;SDS011;5802;52.832;4.758;2023-09-18T08:10:31;4.45;;;2.10;;
11490;SDS011;5802;52.832;4.758;2023-09-18T08:12:57;4.38;;;2.45;;
11490;SDS011;5802;52.832;4.758;2023-09-18T08:15:25;3.72;;;2.25;;
11490;SDS011;5802;52.832;4.758;2023-09-18T08:17:54;6.07;;;2.88;;
11490;SDS011;5802;52.832;4.758;2023-09-18T08:20:20;5.63;;;2.42;;
11490;SDS011;5802;52.832;4.758;2023-09-18T08:22:47;4.43;;;2.63;;
11490;SDS011;5802;52.832;4.758;2023-09-18T08:25:15;4.10;;;2.47;;
11490;SDS011;5802;52.832;4.758;2023-09-18T08:27:42;3.55;;;2.63;;
11490;SDS011;5802;52.832;4.758;2023-09-18T08:30:09;5.00;;;2.70;;
11490;SDS011;5802;52.832;4.758;2023-09-18T08:32:38;6.10;;;2.53;;
11490;SDS011;5802;52.832;4.758;2023-09-18T08:35:05;3.58;;;2.58;;
11490;SDS011;5802;52.832;4.758;2023-09-18T08:37:34;7.30;;;2.33;;
11490;SDS011;5802;52.832;4.758;2023-09-18T08:40:01;3.42;;;2.30;;
11490;SDS011;5802;52.832;4.758;2023-09-18T08:42:35;4.13;;;2.47;;
11490;SDS011;5802;52.832;4.758;2023-09-18T08:45:04;4.00;;;2.58;;
11490;SDS011;5802;52.832;4.758;2023-09-18T08:47:34;4.85;;;2.20;;
11490;SDS011;5802;52.832;4.758;2023-09-18T08:50:02;3.75;;;2.30;;
11490;SDS011;5802;52.832;4.758;2023-09-18T08:52:30;3.00;;;2.42;;
11490;SDS011;5802;52.832;4.758;2023-09-18T08:54:57;3.28;;;2.75;;
11490;SDS011;5802;52.832;4.758;2023-09-18T08:57:25;3.97;;;2.47;;
11490;SDS011;5802;52.832;4.758;2023-09-18T08:59:54;5.07;;;2.58;;
11490;SDS011;5802;52.832;4.758;2023-09-18T09:02:22;5.28;;;2.58;;
11490;SDS011;5802;52.832;4.758;2023-09-18T09:04:49;5.47;;;2.65;;
11490;SDS011;5802;52.832;4.758;2023-09-18T09:07:17;6.68;;;2.75;;
11490;SDS011;5802;52.832;4.758;2023-09-18T09:09:44;3.22;;;2.60;;
11490;SDS011;5802;52.832;4.758;2023-09-18T09:12:12;3.30;;;2.45;;
11490;SDS011;5802;52.832;4.758;2023-09-18T09:14:39;4.35;;;2.47;;
11490;SDS011;5802;52.832;4.758;2023-09-18T09:17:06;3.55;;;2.53;;
11490;SDS011;5802;52.832;4.758;2023-09-18T09:19:33;2.85;;;2.33;;
11490;SDS011;5802;52.832;4.758;2023-09-18T09:22:04;4.93;;;2.72;;
11490;SDS011;5802;52.832;4.758;2023-09-18T09:24:39;4.72;;;2.42;;
11490;SDS011;5802;52.832;4.758;2023-09-18T09:27:07;4.43;;;2.50;;
11490;SDS011;5802;52.832;4.758;2023-09-18T09:29:34;5.60;;;2.50;;
11490;SDS011;5802;52.832;4.758;2023-09-18T09:32:14;4.93;;;2.78;;
11490;SDS011;5802;52.832;4.758;2023-09-18T09:34:42;4.10;;;2.58;;
11490;SDS011;5802;52.832;4.758;2023-09-18T09:37:11;5.07;;;2.30;;
11490;SDS011;5802;52.832;4.758;2023-09-18T09:39:49;5.43;;;2.30;;
11490;SDS011;5802;52.832;4.758;2023-09-18T09:42:20;4.38;;;2.60;;
11490;SDS011;5802;52.832;4.758;2023-09-18T09:44:55;3.78;;;2.40;;
11490;SDS011;5802;52.832;4.758;2023-09-18T09:47:32;4.30;;;2.50;;
11490;SDS011;5802;52.832;4.758;2023-09-18T09:50:03;5.00;;;2.58;;
11490;SDS011;5802;52.832;4.758;2023-09-18T09:52:33;6.05;;;2.50;;
11490;SDS011;5802;52.832;4.758;2023-09-18T09:55:01;5.05;;;2.45;;
11490;SDS011;5802;52.832;4.758;2023-09-18T09:57:29;5.50;;;2.92;;
11490;SDS011;5802;52.832;4.758;2023-09-18T10:00:02;5.07;;;2.75;;
11490;SDS011;5802;52.832;4.758;2023-09-18T10:02:47;5.50;;;2.60;;
11490;SDS011;5802;52.832;4.758;2023-09-18T10:05:15;6.10;;;2.17;;
11490;SDS011;5802;52.832;4.758;2023-09-18T10:07:44;6.70;;;2.40;;
11490;SDS011;5802;52.832;4.758;2023-09-18T10:10:12;5.88;;;2.58;;
11490;SDS011;5802;52.832;4.758;2023-09-18T10:12:39;6.65;;;2.70;;
11490;SDS011;5802;52.832;4.758;2023-09-18T10:15:07;5.07;;;2.72;;
11490;SDS011;5802;52.832;4.758;2023-09-18T10:17:36;4.45;;;2.50;;
11490;SDS011;5802;52.832;4.758;2023-09-18T10:20:11;6.97;;;2.53;;
11490;SDS011;5802;52.832;4.758;2023-09-18T10:22:44;6.90;;;2.58;;
11490;SDS011;5802;52.832;4.758;2023-09-18T10:25:15;3.88;;;2.35;;
11490;SDS011;5802;52.832;4.758;2023-09-18T10:27:45;4.25;;;2.50;;
11490;SDS011;5802;52.832;4.758;2023-09-18T10:30:14;4.97;;;2.70;;
11490;SDS011;5802;52.832;4.758;2023-09-18T10:32:43;4.57;;;2.72;;
11490;SDS011;5802;52.832;4.758;2023-09-18T10:35:11;7.65;;;2.60;;
11490;SDS011;5802;52.832;4.758;2023-09-18T10:37:38;7.57;;;2.70;;
11490;SDS011;5802;52.832;4.758;2023-09-18T10:40:07;8.95;;;2.60;;
11490;SDS011;5802;52.832;4.758;2023-09-18T10:42:36;3.83;;;2.38;;
11490;SDS011;5802;52.832;4.758;2023-09-18T10:45:04;6.28;;;2.40;;
11490;SDS011;5802;52.832;4.758;2023-09-18T10:47:35;4.57;;;2.20;;
11490;SDS011;5802;52.832;4.758;2023-09-18T10:50:04;6.25;;;2.40;;
11490;SDS011;5802;52.832;4.758;2023-09-18T10:52:32;5.07;;;2.25;;
11490;SDS011;5802;52.832;4.758;2023-09-18T10:54:59;6.88;;;2.55;;
11490;SDS011;5802;52.832;4.758;2023-09-18T10:57:27;6.15;;;2.55;;
11490;SDS011;5802;52.832;4.758;2023-09-18T10:59:55;6.22;;;2.58;;
11490;SDS011;5802;52.832;4.758;2023-09-18T11:02:23;5.97;;;2.65;;
11490;SDS011;5802;52.832;4.758;2023-09-18T11:04:50;4.80;;;2.50;;
11490;SDS011;5802;52.832;4.758;2023-09-18T11:07:20;8.32;;;3.10;;
11490;SDS011;5802;52.832;4.758;2023-09-18T11:09:47;5.72;;;3.03;;
11490;SDS011;5802;52.832;4.758;2023-09-18T11:12:15;5.72;;;2.85;;
11490;SDS011;5802;52.832;4.758;2023-09-18T11:14:43;6.75;;;3.38;;
11490;SDS011;5802;52.832;4.758;2023-09-18T11:17:31;18.35;;;8.02;;
11490;SDS011;5802;52.832;4.758;2023-09-18T11:20:06;16.95;;;8.40;;
11490;SDS011;5802;52.832;4.758;2023-09-18T11:22:36;13.98;;;9.00;;
11490;SDS011;5802;52.832;4.758;2023-09-18T11:28:03;6.63;;;4.40;;
11490;SDS011;5802;52.832;4.758;2023-09-18T11:30:32;8.57;;;4.28;;
11490;SDS011;5802;52.832;4.758;2023-09-18T11:33:03;7.68;;;4.25;;
11490;SDS011;5802;52.832;4.758;2023-09-18T11:35:31;14.02;;;7.47;;
11490;SDS011;5802;52.832;4.758;2023-09-18T11:38:05;9.48;;;4.47;;
11490;SDS011;5802;52.832;4.758;2023-09-18T11:40:33;10.27;;;4.10;;
11490;SDS011;5802;52.832;4.758;2023-09-18T11:43:19;5.75;;;4.03;;
11490;SDS011;5802;52.832;4.758;2023-09-18T11:45:50;7.82;;;4.05;;
11490;SDS011;5802;52.832;4.758;2023-09-18T11:48:20;9.45;;;4.70;;
11490;SDS011;5802;52.832;4.758;2023-09-18T11:50:48;9.45;;;3.97;;
11490;SDS011;5802;52.832;4.758;2023-09-18T11:53:15;9.38;;;4.78;;
11490;SDS011;5802;52.832;4.758;2023-09-18T11:55:44;11.27;;;4.35;;
11490;SDS011;5802;52.832;4.758;2023-09-18T11:58:11;6.22;;;3.85;;
11490;SDS011;5802;52.832;4.758;2023-09-18T12:00:38;6.85;;;3.85;;
11490;SDS011;5802;52.832;4.758;2023-09-18T12:03:14;8.20;;;3.92;;
11490;SDS011;5802;52.832;4.758;2023-09-18T12:05:49;5.32;;;4.10;;
11490;SDS011;5802;52.832;4.758;2023-09-18T12:08:18;7.57;;;3.88;;
11490;SDS011;5802;52.832;4.758;2023-09-18T12:10:47;6.47;;;3.38;;
11490;SDS011;5802;52.832;4.758;2023-09-18T12:13:15;7.80;;;4.10;;
11490;SDS011;5802;52.832;4.758;2023-09-18T12:15:42;8.93;;;4.13;;
11490;SDS011;5802;52.832;4.758;2023-09-18T12:18:09;5.65;;;3.92;;
11490;SDS011;5802;52.832;4.758;2023-09-18T12:20:37;7.28;;;3.60;;
11490;SDS011;5802;52.832;4.758;2023-09-18T12:23:05;7.45;;;3.60;;
11490;SDS011;5802;52.832;4.758;2023-09-18T12:25:33;4.78;;;3.05;;
11490;SDS011;5802;52.832;4.758;2023-09-18T12:28:00;5.18;;;3.03;;
11490;SDS011;5802;52.832;4.758;2023-09-18T12:30:29;6.22;;;3.40;;
11490;SDS011;5802;52.832;4.758;2023-09-18T12:32:57;8.07;;;3.35;;
11490;SDS011;5802;52.832;4.758;2023-09-18T12:35:25;5.57;;;3.13;;
11490;SDS011;5802;52.832;4.758;2023-09-18T12:37:54;6.38;;;2.90;;
11490;SDS011;5802;52.832;4.758;2023-09-18T12:40:23;6.80;;;2.95;;
11490;SDS011;5802;52.832;4.758;2023-09-18T12:42:50;5.97;;;3.60;;
11490;SDS011;5802;52.832;4.758;2023-09-18T12:45:18;4.95;;;3.22;;
11490;SDS011;5802;52.832;4.758;2023-09-18T12:47:45;5.57;;;2.90;;
11490;SDS011;5802;52.832;4.758;2023-09-18T12:50:12;4.32;;;2.90;;
11490;SDS011;5802;52.832;4.758;2023-09-18T12:52:39;5.95;;;2.95;;
11490;SDS011;5802;52.832;4.758;2023-09-18T12:55:06;5.95;;;3.13;;
11490;SDS011;5802;52.832;4.758;2023-09-18T12:57:35;8.00;;;2.67;;
11490;SDS011;5802;52.832;4.758;2023-09-18T13:00:08;6.97;;;2.75;;
11490;SDS011;5802;52.832;4.758;2023-09-18T13:02:37;7.85;;;2.92;;
11490;SDS011;5802;52.832;4.758;2023-09-18T13:05:05;5.50;;;2.60;;
11490;SDS011;5802;52.832;4.758;2023-09-18T13:07:42;6.20;;;3.13;;
11490;SDS011;5802;52.832;4.758;2023-09-18T13:10:10;5.47;;;2.95;;
11490;SDS011;5802;52.832;4.758;2023-09-18T13:12:40;6.68;;;2.60;;
11490;SDS011;5802;52.832;4.758;2023-09-18T13:15:08;6.68;;;2.90;;
11490;SDS011;5802;52.832;4.758;2023-09-18T13:17:37;6.45;;;3.03;;
11490;SDS011;5802;52.832;4.758;2023-09-18T13:20:11;6.57;;;2.88;;
11490;SDS011;5802;52.832;4.758;2023-09-18T13:22:40;3.55;;;2.90;;
11490;SDS011;5802;52.832;4.758;2023-09-18T13:25:07;6.88;;;3.13;;
11490;SDS011;5802;52.832;4.758;2023-09-18T13:27:35;3.45;;;2.88;;
11490;SDS011;5802;52.832;4.758;2023-09-18T13:30:05;7.88;;;3.53;;
11490;SDS011;5802;52.832;4.758;2023-09-18T13:32:34;4.90;;;2.80;;
11490;SDS011;5802;52.832;4.758;2023-09-18T13:35:01;3.80;;;2.75;;
11490;SDS011;5802;52.832;4.758;2023-09-18T13:37:30;6.25;;;3.20;;
11490;SDS011;5802;52.832;4.758;2023-09-18T13:39:57;7.72;;;2.72;;
11490;SDS011;5802;52.832;4.758;2023-09-18T13:42:26;4.95;;;2.85;;
11490;SDS011;5802;52.832;4.758;2023-09-18T13:44:54;6.07;;;3.28;;
11490;SDS011;5802;52.832;4.758;2023-09-18T13:47:22;4.70;;;2.65;;
11490;SDS011;5802;52.832;4.758;2023-09-18T13:49:49;4.90;;;2.95;;
11490;SDS011;5802;52.832;4.758;2023-09-18T13:52:16;5.15;;;2.95;;
11490;SDS011;5802;52.832;4.758;2023-09-18T13:54:44;7.13;;;2.75;;
11490;SDS011;5802;52.832;4.758;2023-09-18T13:57:16;4.20;;;2.60;;
11490;SDS011;5802;52.832;4.758;2023-09-18T13:59:44;4.15;;;2.67;;
11490;SDS011;5802;52.832;4.758;2023-09-18T14:02:11;4.03;;;2.53;;
11490;SDS011;5802;52.832;4.758;2023-09-18T14:04:39;6.22;;;2.75;;
11490;SDS011;5802;52.832;4.758;2023-09-18T14:07:06;4.47;;;2.42;;
11490;SDS011;5802;52.832;4.758;2023-09-18T14:09:33;3.50;;;2.90;;
11490;SDS011;5802;52.832;4.758;2023-09-18T14:12:00;3.95;;;2.75;;
11490;SDS011;5802;52.832;4.758;2023-09-18T14:14:27;3.70;;;2.80;;
11490;SDS011;5802;52.832;4.758;2023-09-18T14:16:54;4.22;;;2.55;;
11490;SDS011;5802;52.832;4.758;2023-09-18T14:19:22;3.55;;;2.70;;
11490;SDS011;5802;52.832;4.758;2023-09-18T14:21:50;3.78;;;2.65;;
11490;SDS011;5802;52.832;4.758;2023-09-18T14:24:17;3.90;;;2.50;;
11490;SDS011;5802;52.832;4.758;2023-09-18T14:26:47;3.40;;;2.63;;
11490;SDS011;5802;52.832;4.758;2023-09-18T14:29:14;4.40;;;2.70;;
11490;SDS011;5802;52.832;4.758;2023-09-18T14:31:41;4.78;;;2.67;;
11490;SDS011;5802;52.832;4.758;2023-09-18T14:34:07;3.13;;;2.65;;
11490;SDS011;5802;52.832;4.758;2023-09-18T14:36:34;4.28;;;2.50;;
11490;SDS011;5802;52.832;4.758;2023-09-18T14:39:05;4.50;;;2.25;;
11490;SDS011;5802;52.832;4.758;2023-09-18T14:41:33;6.03;;;2.70;;
11490;SDS011;5802;52.832;4.758;2023-09-18T14:44:00;4.22;;;2.30;;
11490;SDS011;5802;52.832;4.758;2023-09-18T14:46:28;5.78;;;2.70;;
11490;SDS011;5802;52.832;4.758;2023-09-18T14:48:55;4.68;;;2.58;;
11490;SDS011;5802;52.832;4.758;2023-09-18T14:51:21;3.83;;;2.50;;
11490;SDS011;5802;52.832;4.758;2023-09-18T14:53:48;3.65;;;2.28;;
11490;SDS011;5802;52.832;4.758;2023-09-18T14:56:16;3.75;;;2.35;;
11490;SDS011;5802;52.832;4.758;2023-09-18T14:58:43;5.38;;;2.50;;
11490;SDS011;5802;52.832;4.758;2023-09-18T15:01:10;2.75;;;2.50;;
11490;SDS011;5802;52.832;4.758;2023-09-18T15:03:37;3.65;;;2.50;;
11490;SDS011;5802;52.832;4.758;2023-09-18T15:06:22;3.33;;;2.40;;
11490;SDS011;5802;52.832;4.758;2023-09-18T15:08:51;4.85;;;2.40;;